createdAt,value
2022-08-01T00:01:33.222Z,21.14
2022-08-01T00:04:01.395Z,21.20
2022-08-01T00:06:30.805Z,21.10
2022-08-01T00:08:59.078Z,21.06
2022-08-01T00:11:27.763Z,21.03
2022-08-01T00:13:57.425Z,21.09
2022-08-01T00:16:25.652Z,21.06
2022-08-01T00:18:56.439Z,20.93
2022-08-01T00:21:24.558Z,20.90
2022-08-01T00:23:52.621Z,20.90
2022-08-01T00:26:20.727Z,20.68
2022-08-01T00:28:48.831Z,20.63
2022-08-01T00:31:17.389Z,20.51
2022-08-01T00:33:45.656Z,20.63
2022-08-01T00:36:15.143Z,20.66
2022-08-01T00:38:46.035Z,20.68
2022-08-01T00:41:14.075Z,20.71
2022-08-01T00:43:42.180Z,20.73
2022-08-01T00:46:10.174Z,20.75
2022-08-01T00:48:38.180Z,20.75
2022-08-01T00:51:07.545Z,20.61
2022-08-01T00:53:51.380Z,20.45
2022-08-01T00:56:22.478Z,20.32
2022-08-01T00:58:50.680Z,20.13
2022-08-01T01:01:19.175Z,20.15
2022-08-01T01:04:02.790Z,20.18
2022-08-01T01:06:44.515Z,20.20
2022-08-01T01:09:26.043Z,20.08
2022-08-01T01:12:04.280Z,20.06
2022-08-01T01:14:39.055Z,20.08
2022-08-01T01:17:10.044Z,19.98
2022-08-01T01:19:44.554Z,19.95
2022-08-01T01:22:37.912Z,19.76
2022-08-01T01:25:33.226Z,19.75
2022-08-01T01:28:14.608Z,19.74
2022-08-01T01:30:50.376Z,19.57
2022-08-01T01:33:21.250Z,19.53
2022-08-01T01:35:54.139Z,19.49
2022-08-01T01:38:25.844Z,19.51
2022-08-01T01:40:57.399Z,19.41
2022-08-01T01:43:28.858Z,19.32
2022-08-01T01:46:05.170Z,19.13
2022-08-01T01:48:34.878Z,18.96
2022-08-01T01:51:05.532Z,18.75
2022-08-01T01:53:47.209Z,18.59
2022-08-01T01:56:18.619Z,18.46
2022-08-01T01:58:48.727Z,18.31
2022-08-01T02:02:05.464Z,18.15
2022-08-01T02:04:08.567Z,18.03
2022-08-01T02:06:37.123Z,17.98
2022-08-01T02:09:06.201Z,17.91
2022-08-01T02:11:36.388Z,17.83
2022-08-01T02:14:25.603Z,17.70
2022-08-01T02:17:04.851Z,17.63
2022-08-01T02:19:34.625Z,17.57
2022-08-01T02:22:12.090Z,17.52
2022-08-01T02:24:47.081Z,17.46
2022-08-01T02:27:19.802Z,17.42
2022-08-01T02:29:55.494Z,17.39
2022-08-01T02:32:31.142Z,17.41
2022-08-01T02:34:59.894Z,17.39
2022-08-01T02:37:31.248Z,17.42
2022-08-01T02:40:00.382Z,17.40
2022-08-01T02:42:31.049Z,17.45
2022-08-01T02:44:59.652Z,17.50
2022-08-01T02:47:41.046Z,17.64
2022-08-01T02:50:13.167Z,17.70
2022-08-01T02:52:43.649Z,17.73
2022-08-01T02:55:13.251Z,17.72
2022-08-01T02:57:51.636Z,17.70
2022-08-01T03:00:24.604Z,17.67
2022-08-01T03:02:57.107Z,17.65
2022-08-01T03:05:28.026Z,17.71
2022-08-01T03:08:02.758Z,17.67
2022-08-01T03:10:33.962Z,17.65
2022-08-01T03:13:05.772Z,17.64
2022-08-01T03:15:36.118Z,17.71
2022-08-01T03:18:08.827Z,17.72
2022-08-01T03:20:38.894Z,17.73
2022-08-01T03:23:09.726Z,17.72
2022-08-01T03:25:43.715Z,17.84
2022-08-01T03:28:18.209Z,18.06
2022-08-01T03:30:47.714Z,18.28
2022-08-01T03:33:17.160Z,18.36
2022-08-01T03:35:50.295Z,18.36
2022-08-01T03:38:24.160Z,18.34
2022-08-01T03:40:55.711Z,18.40
2022-08-01T03:43:48.167Z,18.33
2022-08-01T03:46:22.092Z,18.32
2022-08-01T03:48:57.780Z,18.23
2022-08-01T03:51:27.277Z,18.17
2022-08-01T03:53:57.461Z,18.16
2022-08-01T03:56:26.353Z,18.13
2022-08-01T03:58:54.967Z,18.09
2022-08-01T04:01:23.606Z,18.05
2022-08-01T04:03:51.775Z,18.13
2022-08-01T04:06:22.332Z,18.21
2022-08-01T04:08:57.577Z,18.38
2022-08-01T04:11:29.290Z,18.40
2022-08-01T04:13:58.591Z,18.41
2022-08-01T04:16:27.145Z,18.36
2022-08-01T04:18:55.370Z,18.40
2022-08-01T04:21:28.862Z,18.37
2022-08-01T04:24:00.390Z,18.33
2022-08-01T04:26:29.954Z,18.31
2022-08-01T04:28:58.586Z,18.35
2022-08-01T04:31:28.291Z,18.40
2022-08-01T04:33:58.558Z,18.40
2022-08-01T04:36:32.074Z,18.41
2022-08-01T04:39:04.412Z,18.45
2022-08-01T04:41:34.243Z,18.55
2022-08-01T04:44:05.753Z,18.63
2022-08-01T04:46:35.889Z,18.80
2022-08-01T04:49:04.685Z,18.99
2022-08-01T04:51:34.117Z,19.26
2022-08-01T04:54:02.270Z,19.50
2022-08-01T04:56:30.287Z,19.66
2022-08-01T04:59:17.626Z,19.78
2022-08-01T05:01:51.839Z,20.18
2022-08-01T05:04:19.921Z,20.32
2022-08-01T05:06:49.546Z,20.69
2022-08-01T05:09:18.237Z,20.94
2022-08-01T05:11:46.567Z,21.20
2022-08-01T05:14:16.674Z,21.34
2022-08-01T05:16:44.804Z,21.39
2022-08-01T05:19:12.873Z,21.45
2022-08-01T05:21:40.831Z,21.42
2022-08-01T05:24:10.358Z,21.42
2022-08-01T05:26:39.278Z,21.43
2022-08-01T05:29:07.404Z,21.42
2022-08-01T05:31:41.797Z,21.38
2022-08-01T05:34:14.973Z,21.43
2022-08-01T05:36:43.474Z,21.36
2022-08-01T05:39:13.668Z,21.44
2022-08-01T05:41:42.664Z,21.54
2022-08-01T05:44:11.609Z,21.62
2022-08-01T05:46:40.211Z,21.80
2022-08-01T05:49:08.696Z,21.89
2022-08-01T05:51:36.859Z,21.96
2022-08-01T05:54:05.082Z,21.94
2022-08-01T05:56:34.586Z,21.94
2022-08-01T05:59:03.486Z,21.99
2022-08-01T06:01:32.217Z,21.97
2022-08-01T06:04:00.797Z,21.88
2022-08-01T06:06:28.932Z,21.77
2022-08-01T06:08:56.846Z,21.70
2022-08-01T06:11:25.129Z,21.59
2022-08-01T06:13:56.036Z,21.52
2022-08-01T06:16:24.098Z,21.48
2022-08-01T06:18:56.532Z,21.55
2022-08-01T06:21:25.296Z,21.67
2022-08-01T06:23:53.727Z,21.74
2022-08-01T06:26:21.971Z,21.88
2022-08-01T06:28:50.127Z,21.99
2022-08-01T06:31:19.587Z,22.13
2022-08-01T06:33:47.556Z,22.18
2022-08-01T06:36:15.521Z,22.30
2022-08-01T06:38:43.444Z,22.30
2022-08-01T06:41:11.644Z,22.32
2022-08-01T06:43:39.952Z,22.35
2022-08-01T06:46:08.018Z,22.57
2022-08-01T06:48:49.688Z,22.78
2022-08-01T06:51:20.871Z,22.97
2022-08-01T06:53:49.695Z,23.13
2022-08-01T06:56:17.769Z,23.18
2022-08-01T06:58:45.939Z,23.34
2022-08-01T07:01:14.007Z,23.43
2022-08-01T07:03:54.586Z,23.50
2022-08-01T07:06:26.746Z,23.54
2022-08-01T07:08:55.287Z,23.55
2022-08-01T07:11:24.301Z,23.54
2022-08-01T07:13:52.655Z,23.53
2022-08-01T07:16:20.880Z,23.56
2022-08-01T07:18:48.864Z,23.66
2022-08-01T07:21:40.419Z,23.65
2022-08-01T07:24:13.281Z,23.74
2022-08-01T07:26:52.150Z,23.89
2022-08-01T07:29:21.110Z,24.11
2022-08-01T07:31:49.072Z,24.31
2022-08-01T07:34:17.183Z,24.42
2022-08-01T07:36:45.519Z,24.50
2022-08-01T07:39:14.894Z,24.52
2022-08-01T07:41:53.396Z,24.61
2022-08-01T07:44:31.423Z,24.71
2022-08-01T07:47:02.369Z,24.79
2022-08-01T07:49:47.998Z,24.86
2022-08-01T07:52:16.462Z,24.88
2022-08-01T07:54:51.805Z,24.91
2022-08-01T07:57:20.354Z,24.93
2022-08-01T07:59:48.348Z,24.95
2022-08-01T08:02:16.720Z,25.01
2022-08-01T08:04:48.865Z,25.10
2022-08-01T08:07:17.758Z,25.25
2022-08-01T08:09:51.227Z,25.41
2022-08-01T08:12:28.717Z,25.48
2022-08-01T08:14:59.505Z,25.54
2022-08-01T08:17:27.999Z,25.53
2022-08-01T08:19:56.387Z,25.54
2022-08-01T08:22:24.490Z,25.52
2022-08-01T08:24:53.892Z,25.52
2022-08-01T08:27:29.155Z,25.73
2022-08-01T08:29:57.084Z,25.91
2022-08-01T08:32:25.327Z,25.90
2022-08-01T08:34:53.464Z,26.02
2022-08-01T08:37:22.060Z,26.03
2022-08-01T08:39:50.062Z,26.02
2022-08-01T08:42:21.310Z,26.02
2022-08-01T08:44:50.351Z,26.10
2022-08-01T08:47:20.784Z,26.21
2022-08-01T08:49:50.648Z,26.32
2022-08-01T08:52:21.004Z,26.35
2022-08-01T08:54:50.741Z,26.43
2022-08-01T08:57:22.222Z,26.49
2022-08-01T08:59:53.078Z,26.61
2022-08-01T09:02:21.151Z,26.65
2022-08-01T09:04:51.381Z,26.67
2022-08-01T09:10:01.087Z,26.84
2022-08-01T09:12:32.184Z,26.95
2022-08-01T09:15:00.215Z,26.99
2022-08-01T09:17:28.232Z,27.03
2022-08-01T09:19:58.999Z,27.12
2022-08-01T09:22:27.498Z,27.22
2022-08-01T09:25:05.087Z,27.27
2022-08-01T09:27:35.581Z,27.36
2022-08-01T09:30:11.958Z,27.45
2022-08-01T09:32:55.517Z,27.44
2022-08-01T09:35:30.457Z,27.47
2022-08-01T09:38:17.838Z,27.45
2022-08-01T09:40:50.627Z,27.47
2022-08-01T09:43:20.679Z,27.46
2022-08-01T09:45:50.782Z,27.49
2022-08-01T09:48:28.393Z,27.46
2022-08-01T09:51:04.150Z,27.44
2022-08-01T09:53:51.899Z,27.58
2022-08-01T09:56:23.162Z,27.51
2022-08-01T09:59:00.545Z,27.51
2022-08-01T10:01:36.781Z,27.60
2022-08-01T10:04:09.585Z,27.53
2022-08-01T10:06:44.022Z,27.43
2022-08-01T10:09:13.931Z,27.29
2022-08-01T10:11:45.247Z,27.17
2022-08-01T10:14:17.836Z,26.92
2022-08-01T10:16:52.840Z,26.99
2022-08-01T10:19:24.479Z,27.11
2022-08-01T10:21:58.948Z,27.27
2022-08-01T10:24:29.739Z,27.29
2022-08-01T10:27:05.882Z,27.42
2022-08-01T10:29:59.195Z,27.49
2022-08-01T10:32:31.955Z,27.65
2022-08-01T10:35:06.775Z,27.73
2022-08-01T10:37:51.874Z,27.69
2022-08-01T10:40:37.147Z,27.53
2022-08-01T10:43:05.447Z,27.56
2022-08-01T10:45:35.952Z,27.44
2022-08-01T10:48:11.436Z,27.41
2022-08-01T10:50:44.203Z,27.40
2022-08-01T10:53:23.269Z,27.06
2022-08-01T10:56:01.376Z,26.84
2022-08-01T10:58:46.521Z,26.71
2022-08-01T11:01:29.825Z,26.56
2022-08-01T11:04:16.076Z,26.47
2022-08-01T11:07:07.208Z,26.32
2022-08-01T11:09:47.094Z,26.13
2022-08-01T11:12:24.644Z,25.97
2022-08-01T11:15:32.241Z,25.94
2022-08-01T11:18:31.111Z,25.82
2022-08-01T11:21:57.997Z,25.39
2022-08-01T11:23:53.183Z,24.73
2022-08-01T11:26:29.519Z,24.27
2022-08-01T11:32:26.918Z,23.36
2022-08-01T11:34:56.165Z,23.05
2022-08-01T11:37:44.679Z,22.85
2022-08-01T11:40:22.976Z,22.69
2022-08-01T11:43:19.849Z,22.44
2022-08-01T11:45:52.547Z,22.29
2022-08-01T11:48:27.601Z,22.12
2022-08-01T11:50:57.725Z,21.99
2022-08-01T11:53:28.826Z,21.85
2022-08-01T11:55:58.503Z,21.70
2022-08-01T11:58:30.735Z,21.57
2022-08-01T12:01:00.915Z,21.43
2022-08-01T12:03:33.571Z,21.29
2022-08-01T12:06:02.518Z,21.23
2022-08-01T12:08:35.884Z,21.15
2022-08-01T12:11:06.864Z,21.07
2022-08-01T12:13:47.681Z,21.05
2022-08-01T12:16:16.343Z,21.03
2022-08-01T12:18:45.396Z,20.97
2022-08-01T12:21:13.450Z,20.94
2022-08-01T12:23:42.952Z,20.94
2022-08-01T12:26:25.872Z,20.96
2022-08-01T12:28:59.391Z,20.97
2022-08-01T12:31:33.978Z,21.01
2022-08-01T12:34:27.735Z,21.10
2022-08-01T12:36:57.653Z,21.26
2022-08-01T12:39:34.624Z,21.50
2022-08-01T12:42:07.392Z,21.65
2022-08-01T12:44:36.751Z,21.83
2022-08-01T12:47:07.976Z,21.88
2022-08-01T12:49:38.705Z,21.92
2022-08-01T12:52:12.865Z,21.98
2022-08-01T12:55:06.443Z,22.11
2022-08-01T12:57:41.472Z,22.30
2022-08-01T13:00:19.298Z,22.43
2022-08-01T13:02:49.347Z,22.52
2022-08-01T13:05:18.825Z,22.50
2022-08-01T13:07:49.784Z,22.59
2022-08-01T13:10:29.718Z,22.58
2022-08-01T13:12:59.634Z,22.58
2022-08-01T13:15:33.192Z,22.59
2022-08-01T13:18:03.032Z,22.64
2022-08-01T13:20:34.041Z,22.93
2022-08-01T13:23:18.086Z,23.29
2022-08-01T13:26:05.956Z,23.51
2022-08-01T13:28:36.091Z,23.63
2022-08-01T13:31:06.436Z,23.71
2022-08-01T13:33:43.816Z,23.73
2022-08-01T13:36:12.374Z,23.69
2022-08-01T13:39:00.260Z,23.68
2022-08-01T13:41:29.900Z,23.58
2022-08-01T13:43:59.522Z,23.54
2022-08-01T13:46:29.702Z,23.54
2022-08-01T13:48:57.775Z,23.55
2022-08-01T13:51:33.603Z,23.58
2022-08-01T13:54:01.734Z,23.60
2022-08-01T13:56:37.884Z,23.69
2022-08-01T13:59:05.879Z,23.87
2022-08-01T14:01:34.636Z,23.99
2022-08-01T14:04:03.666Z,23.93
2022-08-01T14:06:31.921Z,24.04
2022-08-01T14:09:01.278Z,24.21
2022-08-01T14:11:30.677Z,24.40
2022-08-01T14:14:08.277Z,24.59
2022-08-01T14:16:38.666Z,24.84
2022-08-01T14:19:06.619Z,25.11
2022-08-01T14:21:34.590Z,25.18
2022-08-01T14:24:02.644Z,25.04
2022-08-01T14:26:30.735Z,24.95
2022-08-01T14:28:58.835Z,24.83
2022-08-01T14:31:32.246Z,24.56
2022-08-01T14:34:02.538Z,24.30
2022-08-01T14:36:32.512Z,24.22
2022-08-01T14:39:06.760Z,24.22
2022-08-01T14:41:34.891Z,24.28
2022-08-01T14:44:05.143Z,24.38
2022-08-01T14:46:34.752Z,24.56
2022-08-01T14:49:06.352Z,24.74
2022-08-01T14:51:35.585Z,24.92
2022-08-01T14:54:03.970Z,25.05
2022-08-01T14:56:32.405Z,25.27
2022-08-01T14:59:01.393Z,25.52
2022-08-01T15:01:29.458Z,25.68
2022-08-01T15:03:59.317Z,25.73
2022-08-01T15:06:27.426Z,25.76
2022-08-01T15:08:59.968Z,25.68
2022-08-01T15:11:34.313Z,25.79
2022-08-01T15:14:22.445Z,25.81
2022-08-01T15:16:52.609Z,25.77
2022-08-01T15:19:22.051Z,25.69
2022-08-01T15:22:10.041Z,25.69
2022-08-01T15:24:38.580Z,25.71
2022-08-01T15:27:07.096Z,25.73
2022-08-01T15:29:35.679Z,25.78
2022-08-01T15:32:05.556Z,25.87
2022-08-01T15:34:35.939Z,25.85
2022-08-01T15:37:05.836Z,26.22
2022-08-01T15:39:35.010Z,26.74
2022-08-01T15:42:06.841Z,27.67
2022-08-01T15:44:35.416Z,28.34
2022-08-01T15:47:04.856Z,29.01
2022-08-01T15:49:37.641Z,29.83
2022-08-01T15:52:07.024Z,30.33
2022-08-01T15:54:50.327Z,30.69
2022-08-01T15:57:19.913Z,31.20
2022-08-01T15:59:47.896Z,31.57
2022-08-01T16:02:19.427Z,31.63
2022-08-01T16:04:48.824Z,31.79
2022-08-01T16:07:16.991Z,32.13
2022-08-01T16:10:09.081Z,32.18
2022-08-01T16:12:39.088Z,32.23
2022-08-01T16:15:08.145Z,32.57
2022-08-01T16:17:39.374Z,33.03
2022-08-01T16:20:14.159Z,33.45
2022-08-01T16:22:42.176Z,33.71
2022-08-01T16:25:11.533Z,34.00
2022-08-01T16:27:39.571Z,34.29
2022-08-01T16:30:08.343Z,34.27
2022-08-01T16:32:41.135Z,34.28
2022-08-01T16:35:16.482Z,34.35
2022-08-01T16:37:46.662Z,34.25
2022-08-01T16:40:15.102Z,34.02
2022-08-01T16:42:43.195Z,34.01
2022-08-01T16:45:13.618Z,34.04
2022-08-01T16:47:42.832Z,33.84
2022-08-01T16:50:10.921Z,33.63
2022-08-01T16:52:41.891Z,33.43
2022-08-01T16:55:11.512Z,32.18
2022-08-01T16:57:39.795Z,31.04
2022-08-01T17:00:10.722Z,30.04
2022-08-01T17:02:40.499Z,29.30
2022-08-01T17:05:12.798Z,28.62
2022-08-01T17:07:42.458Z,28.15
2022-08-01T17:10:11.880Z,27.71
2022-08-01T17:12:40.200Z,27.37
2022-08-01T17:15:09.597Z,27.09
2022-08-01T17:17:37.567Z,26.86
2022-08-01T17:20:08.251Z,26.67
2022-08-01T17:22:36.783Z,26.53
2022-08-01T17:25:07.263Z,26.35
2022-08-01T17:27:44.308Z,26.18
2022-08-01T17:30:13.965Z,26.22
2022-08-01T17:32:42.234Z,26.09
2022-08-01T17:35:12.414Z,25.98
2022-08-01T17:37:40.479Z,25.83
2022-08-01T17:40:38.655Z,25.67
2022-08-01T17:43:00.699Z,25.58
2022-08-01T17:45:29.476Z,25.54
2022-08-01T17:47:57.664Z,25.44
2022-08-01T17:50:26.394Z,25.86
2022-08-01T17:52:54.362Z,26.78
2022-08-01T17:55:53.764Z,27.57
2022-08-01T17:58:51.046Z,28.47
2022-08-01T18:01:21.323Z,29.17
2022-08-01T18:03:49.679Z,29.36
2022-08-01T18:06:23.154Z,29.76
2022-08-01T18:08:53.283Z,30.15
2022-08-01T18:11:27.805Z,30.29
2022-08-01T18:13:59.439Z,30.05
2022-08-01T18:16:27.981Z,29.52
2022-08-01T18:18:56.545Z,29.26
2022-08-01T18:21:25.403Z,28.96
2022-08-01T18:23:53.488Z,29.13
2022-08-01T18:26:21.968Z,29.25
2022-08-01T18:28:52.113Z,29.03
2022-08-01T18:31:20.878Z,28.49
2022-08-01T18:33:49.193Z,27.70
2022-08-01T18:36:33.329Z,26.92
2022-08-01T18:39:04.520Z,26.13
2022-08-01T18:41:33.378Z,25.57
2022-08-01T18:44:05.449Z,25.05
2022-08-01T18:46:37.145Z,24.67
2022-08-01T18:49:06.029Z,24.31
2022-08-01T18:51:34.180Z,23.89
2022-08-01T18:54:02.239Z,23.55
2022-08-01T18:56:30.625Z,23.26
2022-08-01T18:58:58.658Z,22.95
2022-08-01T19:01:28.487Z,22.64
2022-08-01T19:03:56.571Z,22.40
2022-08-01T19:06:27.140Z,22.26
2022-08-01T19:08:58.316Z,22.16
2022-08-01T19:11:29.755Z,22.00
2022-08-01T19:14:00.151Z,21.79
2022-08-01T19:16:29.977Z,21.56
2022-08-01T19:18:58.074Z,21.38
2022-08-01T19:21:26.978Z,21.19
2022-08-01T19:24:12.362Z,21.03
2022-08-01T19:26:41.857Z,20.86
2022-08-01T19:29:13.671Z,20.81
2022-08-01T19:31:49.047Z,20.77
2022-08-01T19:34:18.810Z,20.66
2022-08-01T19:36:48.668Z,20.58
2022-08-01T19:39:19.028Z,20.50
2022-08-01T19:41:51.204Z,20.40
2022-08-01T19:44:22.850Z,20.26
2022-08-01T19:46:53.794Z,20.15
2022-08-01T19:49:23.222Z,20.09
2022-08-01T19:51:52.835Z,20.01
2022-08-01T19:54:22.358Z,19.87
2022-08-01T19:56:52.131Z,19.78
2022-08-01T19:59:26.216Z,19.67
2022-08-01T20:01:57.005Z,19.58
2022-08-01T20:04:26.483Z,19.51
2022-08-01T20:06:55.003Z,19.42
2022-08-01T20:09:23.644Z,19.37
2022-08-01T20:11:54.001Z,19.32
2022-08-01T20:14:27.743Z,19.23
2022-08-01T20:16:57.987Z,19.17
2022-08-01T20:19:26.721Z,19.09
2022-08-01T20:22:02.429Z,18.99
2022-08-01T20:24:38.155Z,18.92
2022-08-01T20:27:10.290Z,18.86
2022-08-01T20:29:39.239Z,18.83
2022-08-01T20:32:09.516Z,18.74
2022-08-01T20:34:39.647Z,18.74
2022-08-01T20:37:13.194Z,18.73
2022-08-01T20:39:45.360Z,18.71
2022-08-01T20:42:14.228Z,18.63
2022-08-01T20:44:43.025Z,18.58
2022-08-01T20:47:13.885Z,18.52
2022-08-01T20:49:44.754Z,18.50
2022-08-01T20:52:12.794Z,18.42
2022-08-01T20:54:42.096Z,18.30
2022-08-01T20:57:17.083Z,18.19
2022-08-01T20:59:56.003Z,18.08
2022-08-01T21:02:41.657Z,17.95
2022-08-01T21:05:11.861Z,17.84
2022-08-01T21:07:43.753Z,17.71
2022-08-01T21:10:15.419Z,17.66
2022-08-01T21:12:45.968Z,17.59
2022-08-01T21:15:21.912Z,17.50
2022-08-01T21:17:59.396Z,17.44
2022-08-01T21:20:29.887Z,17.39
2022-08-01T21:23:11.569Z,17.35
2022-08-01T21:25:39.926Z,17.29
2022-08-01T21:28:08.188Z,17.29
2022-08-01T21:30:37.266Z,17.31
2022-08-01T21:33:11.605Z,17.27
2022-08-01T21:35:40.891Z,17.26
2022-08-01T21:38:10.678Z,17.21
2022-08-01T21:40:40.490Z,17.17
2022-08-01T21:43:09.877Z,17.13
2022-08-01T21:45:39.806Z,17.04
2022-08-01T21:48:30.964Z,17.01
2022-08-01T21:51:00.789Z,17.00
2022-08-01T21:53:38.387Z,16.97
2022-08-01T21:56:19.790Z,16.98
2022-08-01T21:58:56.430Z,16.94
2022-08-01T22:01:29.721Z,16.88
2022-08-01T22:04:09.075Z,16.78
2022-08-01T22:06:39.120Z,16.72
2022-08-01T22:09:09.803Z,16.72
2022-08-01T22:12:01.251Z,16.66
2022-08-01T22:14:33.683Z,16.60
2022-08-01T22:17:07.334Z,16.51
2022-08-01T22:19:45.483Z,16.44
2022-08-01T22:22:47.484Z,16.38
2022-08-01T22:25:04.058Z,16.38
2022-08-01T22:28:05.574Z,16.31
2022-08-01T22:30:20.707Z,16.31
2022-08-01T22:33:07.073Z,16.28
2022-08-01T22:35:39.934Z,16.25
2022-08-01T22:38:09.675Z,16.20
2022-08-01T22:40:45.792Z,16.23
2022-08-01T22:43:30.821Z,16.28
2022-08-01T22:46:11.369Z,16.30
2022-08-01T22:48:47.029Z,16.27
2022-08-01T22:51:32.864Z,16.20
2022-08-01T22:54:05.607Z,16.14
2022-08-01T22:56:39.056Z,16.08
2022-08-01T22:59:12.570Z,16.01
2022-08-01T23:01:47.799Z,15.95
2022-08-01T23:04:33.026Z,15.90
2022-08-01T23:07:08.342Z,15.91
2022-08-01T23:09:53.387Z,15.90
2022-08-01T23:12:26.957Z,15.86
2022-08-01T23:14:57.780Z,15.95
2022-08-01T23:17:28.926Z,16.09
2022-08-01T23:19:59.769Z,16.15
2022-08-01T23:22:37.502Z,16.12
2022-08-01T23:25:09.088Z,16.15
2022-08-01T23:27:51.340Z,16.14
2022-08-01T23:30:32.471Z,16.21
2022-08-01T23:33:00.817Z,16.23
2022-08-01T23:35:30.200Z,16.21
2022-08-01T23:38:02.920Z,16.16
2022-08-01T23:40:31.980Z,16.10
2022-08-01T23:43:00.840Z,16.06
2022-08-01T23:46:02.048Z,16.00
2022-08-01T23:48:17.789Z,15.94
2022-08-01T23:50:45.873Z,15.97
2022-08-01T23:53:15.373Z,16.02
2022-08-01T23:55:44.412Z,16.03
2022-08-01T23:58:12.749Z,16.03
